sensor_id;sensor_type;location;lat;lon;timestamp;pressure;altitude;pressure_sealevel;temperature;humidity
64064;BME280;50314;50.618;10.642;2023-02-28T00:00:38;97663.34;;;15.24;21.70
64064;BME280;50314;50.618;10.642;2023-02-28T00:03:04;97667.06;;;15.22;21.54
64064;BME280;50314;50.618;10.642;2023-02-28T00:05:30;97662.00;;;15.19;21.48
64064;BME280;50314;50.618;10.642;2023-02-28T00:07:55;97665.63;;;15.18;21.80
64064;BME280;50314;50.618;10.642;2023-02-28T00:10:26;97673.69;;;15.16;21.68
64064;BME280;50314;50.618;10.642;2023-02-28T00:12:53;97663.22;;;15.15;21.71
64064;BME280;50314;50.618;10.642;2023-02-28T00:15:20;97664.06;;;15.15;21.43
64064;BME280;50314;50.618;10.642;2023-02-28T00:17:46;97663.22;;;15.15;21.51
64064;BME280;50314;50.618;10.642;2023-02-28T00:20:12;97663.34;;;15.13;21.79
64064;BME280;50314;50.618;10.642;2023-02-28T00:22:44;97666.09;;;15.12;21.78
64064;BME280;50314;50.618;10.642;2023-02-28T00:25:11;97663.44;;;15.12;21.89
64064;BME280;50314;50.618;10.642;2023-02-28T00:27:39;97665.50;;;15.08;21.90
64064;BME280;50314;50.618;10.642;2023-02-28T00:30:06;97664.88;;;15.04;21.61
64064;BME280;50314;50.618;10.642;2023-02-28T00:32:32;97668.28;;;15.07;21.87
64064;BME280;50314;50.618;10.642;2023-02-28T00:34:59;97662.00;;;15.08;21.76
64064;BME280;50314;50.618;10.642;2023-02-28T00:37:25;97662.00;;;15.08;21.67
64064;BME280;50314;50.618;10.642;2023-02-28T00:39:50;97666.47;;;15.07;21.64
64064;BME280;50314;50.618;10.642;2023-02-28T00:42:16;97667.53;;;15.04;21.51
64064;BME280;50314;50.618;10.642;2023-02-28T00:44:41;97667.78;;;15.01;21.98
64064;BME280;50314;50.618;10.642;2023-02-28T00:47:07;97662.59;;;15.00;21.80
64064;BME280;50314;50.618;10.642;2023-02-28T00:49:32;97670.41;;;15.01;21.89
64064;BME280;50314;50.618;10.642;2023-02-28T00:51:58;97661.63;;;15.01;21.62
64064;BME280;50314;50.618;10.642;2023-02-28T00:54:23;97667.91;;;15.00;21.82
64064;BME280;50314;50.618;10.642;2023-02-28T00:56:49;97660.88;;;14.99;21.72
64064;BME280;50314;50.618;10.642;2023-02-28T00:59:16;97661.72;;;14.99;21.71
64064;BME280;50314;50.618;10.642;2023-02-28T01:01:43;97663.44;;;15.00;21.80
64064;BME280;50314;50.618;10.642;2023-02-28T01:04:09;97659.78;;;14.90;21.72
64064;BME280;50314;50.618;10.642;2023-02-28T01:06:35;97663.06;;;14.94;21.75
64064;BME280;50314;50.618;10.642;2023-02-28T01:09:02;97660.50;;;14.92;21.92
64064;BME280;50314;50.618;10.642;2023-02-28T01:11:28;97660.50;;;14.92;21.64
64064;BME280;50314;50.618;10.642;2023-02-28T01:13:53;97658.81;;;14.91;21.91
64064;BME280;50314;50.618;10.642;2023-02-28T01:16:19;97656.06;;;14.93;21.88
64064;BME280;50314;50.618;10.642;2023-02-28T01:18:44;97658.59;;;14.94;21.60
64064;BME280;50314;50.618;10.642;2023-02-28T01:21:16;97652.19;;;14.86;21.54
64064;BME280;50314;50.618;10.642;2023-02-28T01:23:42;97665.34;;;14.87;21.93
64064;BME280;50314;50.618;10.642;2023-02-28T01:26:18;97654.97;;;14.84;21.93
64064;BME280;50314;50.618;10.642;2023-02-28T01:28:45;97661.09;;;14.85;21.62
64064;BME280;50314;50.618;10.642;2023-02-28T01:31:10;97659.28;;;14.85;21.68
64064;BME280;50314;50.618;10.642;2023-02-28T01:33:37;97661.94;;;14.85;21.99
64064;BME280;50314;50.618;10.642;2023-02-28T01:36:05;97652.31;;;14.84;21.87
64064;BME280;50314;50.618;10.642;2023-02-28T01:38:32;97650.63;;;14.83;21.66
64064;BME280;50314;50.618;10.642;2023-02-28T01:40:57;97647.09;;;14.83;22.08
64064;BME280;50314;50.618;10.642;2023-02-28T01:43:27;97661.47;;;14.80;21.88
64064;BME280;50314;50.618;10.642;2023-02-28T01:45:54;97656.16;;;14.80;21.82
64064;BME280;50314;50.618;10.642;2023-02-28T01:48:25;97652.75;;;14.78;21.85
64064;BME280;50314;50.618;10.642;2023-02-28T01:50:51;97646.41;;;14.80;21.89
64064;BME280;50314;50.618;10.642;2023-02-28T01:53:21;97639.41;;;14.79;21.97
64064;BME280;50314;50.618;10.642;2023-02-28T01:55:49;97651.94;;;14.77;21.77
64064;BME280;50314;50.618;10.642;2023-02-28T01:58:17;97640.47;;;14.77;22.15
64064;BME280;50314;50.618;10.642;2023-02-28T02:00:42;97637.69;;;14.78;21.63
64064;BME280;50314;50.618;10.642;2023-02-28T02:03:12;97637.94;;;14.75;21.89
64064;BME280;50314;50.618;10.642;2023-02-28T02:05:39;97639.88;;;14.73;21.83
64064;BME280;50314;50.618;10.642;2023-02-28T02:08:09;97635.41;;;14.74;21.94
64064;BME280;50314;50.618;10.642;2023-02-28T02:10:42;97646.09;;;14.72;21.89
64064;BME280;50314;50.618;10.642;2023-02-28T02:18:29;97633.31;;;14.66;21.78
64064;BME280;50314;50.618;10.642;2023-02-28T02:23:39;97633.53;;;14.63;21.80
64064;BME280;50314;50.618;10.642;2023-02-28T02:26:44;97631.97;;;14.61;21.72
64064;BME280;50314;50.618;10.642;2023-02-28T02:40:44;97628.53;;;14.47;22.33
64064;BME280;50314;50.618;10.642;2023-02-28T02:43:14;97621.34;;;14.49;22.04
64064;BME280;50314;50.618;10.642;2023-02-28T02:45:48;97625.66;;;14.50;21.86
64064;BME280;50314;50.618;10.642;2023-02-28T02:48:21;97625.66;;;14.50;22.21
64064;BME280;50314;50.618;10.642;2023-02-28T02:50:52;97629.91;;;14.53;21.98
64064;BME280;50314;50.618;10.642;2023-02-28T02:53:24;97630.75;;;14.53;22.15
64064;BME280;50314;50.618;10.642;2023-02-28T02:55:53;97625.53;;;14.52;22.15
64064;BME280;50314;50.618;10.642;2023-02-28T02:58:25;97633.63;;;14.50;21.86
64064;BME280;50314;50.618;10.642;2023-02-28T03:00:56;97629.38;;;14.48;22.00
64064;BME280;50314;50.618;10.642;2023-02-28T03:03:23;97632.88;;;14.48;22.21
64064;BME280;50314;50.618;10.642;2023-02-28T03:05:55;97641.06;;;14.45;21.83
64064;BME280;50314;50.618;10.642;2023-02-28T03:08:21;97634.06;;;14.44;22.19
64064;BME280;50314;50.618;10.642;2023-02-28T03:10:52;97637.69;;;14.43;22.08
64064;BME280;50314;50.618;10.642;2023-02-28T03:18:47;97632.09;;;14.35;22.28
64064;BME280;50314;50.618;10.642;2023-02-28T03:21:30;97631.63;;;14.30;22.30
64064;BME280;50314;50.618;10.642;2023-02-28T03:24:03;97628.97;;;14.30;22.06
64064;BME280;50314;50.618;10.642;2023-02-28T03:26:31;97628.22;;;14.28;22.05
64064;BME280;50314;50.618;10.642;2023-02-28T03:32:19;97635.47;;;14.26;22.39
64064;BME280;50314;50.618;10.642;2023-02-28T03:35:09;97625.09;;;14.23;22.04
64064;BME280;50314;50.618;10.642;2023-02-28T03:37:40;97623.38;;;14.22;22.40
64064;BME280;50314;50.618;10.642;2023-02-28T03:40:17;97622.66;;;14.20;22.43
64064;BME280;50314;50.618;10.642;2023-02-28T03:42:48;97621.47;;;14.24;22.05
64064;BME280;50314;50.618;10.642;2023-02-28T03:45:21;97625.09;;;14.23;22.41
64064;BME280;50314;50.618;10.642;2023-02-28T03:48:02;97622.44;;;14.23;22.33
64064;BME280;50314;50.618;10.642;2023-02-28T03:50:39;97623.63;;;14.19;22.47
64064;BME280;50314;50.618;10.642;2023-02-28T03:53:14;97627.13;;;14.19;22.40
64064;BME280;50314;50.618;10.642;2023-02-28T03:56:06;97620.09;;;14.18;22.25
64064;BME280;50314;50.618;10.642;2023-02-28T03:58:47;97621.91;;;14.18;22.11
64064;BME280;50314;50.618;10.642;2023-02-28T04:01:18;97617.06;;;14.12;22.12
64064;BME280;50314;50.618;10.642;2023-02-28T04:03:45;97624.56;;;14.18;22.19
64064;BME280;50314;50.618;10.642;2023-02-28T04:06:22;97627.44;;;14.15;22.44
64064;BME280;50314;50.618;10.642;2023-02-28T04:08:48;97626.38;;;14.17;22.09
64064;BME280;50314;50.618;10.642;2023-02-28T04:13:42;97627.44;;;14.15;22.43
64064;BME280;50314;50.618;10.642;2023-02-28T04:16:08;97626.59;;;14.14;22.25
64064;BME280;50314;50.618;10.642;2023-02-28T04:18:40;97622.34;;;14.12;22.21
64064;BME280;50314;50.618;10.642;2023-02-28T04:21:06;97616.22;;;14.11;22.38
64064;BME280;50314;50.618;10.642;2023-02-28T04:23:32;97625.97;;;14.10;22.17
64064;BME280;50314;50.618;10.642;2023-02-28T04:25:58;97631.28;;;14.10;22.22
64064;BME280;50314;50.618;10.642;2023-02-28T04:28:24;97625.13;;;14.10;22.10
64064;BME280;50314;50.618;10.642;2023-02-28T04:30:57;97632.47;;;14.06;22.12
64064;BME280;50314;50.618;10.642;2023-02-28T04:33:23;97635.13;;;14.06;22.17
64064;BME280;50314;50.618;10.642;2023-02-28T04:36:01;97635.34;;;14.03;22.17
64064;BME280;50314;50.618;10.642;2023-02-28T04:38:28;97636.78;;;14.07;22.16
64064;BME280;50314;50.618;10.642;2023-02-28T04:40:56;97630.88;;;14.04;22.17
64064;BME280;50314;50.618;10.642;2023-02-28T04:43:22;97631.09;;;14.01;22.43
64064;BME280;50314;50.618;10.642;2023-02-28T04:45:47;97636.53;;;13.99;22.33
64064;BME280;50314;50.618;10.642;2023-02-28T04:48:13;97636.53;;;13.99;22.22
64064;BME280;50314;50.618;10.642;2023-02-28T04:50:38;97644.56;;;13.98;22.18
64064;BME280;50314;50.618;10.642;2023-02-28T04:53:03;97637.50;;;13.98;22.08
64064;BME280;50314;50.618;10.642;2023-02-28T04:55:29;97646.38;;;13.97;22.43
64064;BME280;50314;50.618;10.642;2023-02-28T04:57:54;97639.41;;;13.96;22.42
64064;BME280;50314;50.618;10.642;2023-02-28T05:00:20;97640.22;;;13.97;22.39
64064;BME280;50314;50.618;10.642;2023-02-28T05:02:45;97649.25;;;13.94;22.48
64064;BME280;50314;50.618;10.642;2023-02-28T05:05:11;97647.44;;;13.95;22.43
64064;BME280;50314;50.618;10.642;2023-02-28T05:07:43;97643.94;;;13.94;22.54
64064;BME280;50314;50.618;10.642;2023-02-28T05:10:10;97636.84;;;13.95;22.34
64064;BME280;50314;50.618;10.642;2023-02-28T05:12:35;97645.75;;;13.94;22.50
64064;BME280;50314;50.618;10.642;2023-02-28T05:15:01;97642.25;;;13.93;22.27
64064;BME280;50314;50.618;10.642;2023-02-28T05:17:27;97647.56;;;13.93;22.58
64064;BME280;50314;50.618;10.642;2023-02-28T05:19:53;97652.84;;;13.93;22.43
64064;BME280;50314;50.618;10.642;2023-02-28T05:22:18;97652.72;;;13.95;22.50
64064;BME280;50314;50.618;10.642;2023-02-28T05:24:44;97650.94;;;13.95;22.28
64064;BME280;50314;50.618;10.642;2023-02-28T05:27:10;97656.34;;;13.94;22.53
64064;BME280;50314;50.618;10.642;2023-02-28T05:29:35;97647.66;;;13.92;22.44
64064;BME280;50314;50.618;10.642;2023-02-28T05:32:08;97645.00;;;13.92;22.52
64064;BME280;50314;50.618;10.642;2023-02-28T05:34:36;97644.06;;;13.93;22.44
64064;BME280;50314;50.618;10.642;2023-02-28T05:37:01;97648.50;;;13.92;22.59
64064;BME280;50314;50.618;10.642;2023-02-28T05:39:27;97655.69;;;13.90;22.34
64064;BME280;50314;50.618;10.642;2023-02-28T05:41:52;97659.31;;;13.89;22.42
64064;BME280;50314;50.618;10.642;2023-02-28T05:44:17;97659.31;;;13.89;22.48
64064;BME280;50314;50.618;10.642;2023-02-28T05:46:43;97655.91;;;13.87;22.48
64064;BME280;50314;50.618;10.642;2023-02-28T05:49:08;97659.41;;;13.87;22.54
64064;BME280;50314;50.618;10.642;2023-02-28T05:51:34;97657.59;;;13.88;22.43
64064;BME280;50314;50.618;10.642;2023-02-28T05:54:01;97659.00;;;13.81;22.53
64064;BME280;50314;50.618;10.642;2023-02-28T05:56:27;97657.72;;;13.86;22.46
64064;BME280;50314;50.618;10.642;2023-02-28T05:58:53;97657.72;;;13.86;22.60
64064;BME280;50314;50.618;10.642;2023-02-28T06:01:45;97664.19;;;13.82;22.49
64064;BME280;50314;50.618;10.642;2023-02-28T06:04:14;97661.22;;;13.87;22.31
64064;BME280;50314;50.618;10.642;2023-02-28T06:06:43;97671.78;;;13.87;22.71
64064;BME280;50314;50.618;10.642;2023-02-28T06:09:10;97662.25;;;13.84;22.40
64064;BME280;50314;50.618;10.642;2023-02-28T06:11:35;97675.41;;;13.86;22.57
64064;BME280;50314;50.618;10.642;2023-02-28T06:14:01;97682.50;;;13.85;22.45
64064;BME280;50314;50.618;10.642;2023-02-28T06:16:28;97679.88;;;13.85;22.40
64064;BME280;50314;50.618;10.642;2023-02-28T06:18:54;97684.31;;;13.85;22.78
64064;BME280;50314;50.618;10.642;2023-02-28T06:21:22;97681.75;;;13.83;22.63
64064;BME280;50314;50.618;10.642;2023-02-28T06:23:47;97682.72;;;13.82;22.64
64064;BME280;50314;50.618;10.642;2023-02-28T06:26:13;97688.03;;;13.82;22.41
64064;BME280;50314;50.618;10.642;2023-02-28T06:28:38;97696.81;;;13.83;22.81
64064;BME280;50314;50.618;10.642;2023-02-28T06:31:09;97692.56;;;13.80;22.80
64064;BME280;50314;50.618;10.642;2023-02-28T06:33:36;97695.22;;;13.80;22.80
64064;BME280;50314;50.618;10.642;2023-02-28T06:36:02;97698.72;;;13.81;22.82
64064;BME280;50314;50.618;10.642;2023-02-28T06:38:28;97698.72;;;13.81;22.56
64064;BME280;50314;50.618;10.642;2023-02-28T06:40:55;97702.09;;;13.83;22.86
64064;BME280;50314;50.618;10.642;2023-02-28T06:43:22;97705.72;;;13.82;22.79
64064;BME280;50314;50.618;10.642;2023-02-28T06:45:47;97710.06;;;13.83;22.94
64064;BME280;50314;50.618;10.642;2023-02-28T06:48:13;97707.41;;;13.83;22.74
64064;BME280;50314;50.618;10.642;2023-02-28T06:50:38;97710.91;;;13.83;23.13
64064;BME280;50314;50.618;10.642;2023-02-28T06:53:04;97711.72;;;13.84;23.04
64064;BME280;50314;50.618;10.642;2023-02-28T06:55:30;97705.59;;;13.83;23.08
64064;BME280;50314;50.618;10.642;2023-02-28T06:57:56;97707.28;;;13.84;23.06
64064;BME280;50314;50.618;10.642;2023-02-28T07:00:22;97716.09;;;13.85;23.13
64064;BME280;50314;50.618;10.642;2023-02-28T07:02:47;97717.78;;;13.86;23.08
64064;BME280;50314;50.618;10.642;2023-02-28T07:05:13;97715.97;;;13.86;23.04
64064;BME280;50314;50.618;10.642;2023-02-28T07:07:39;97713.19;;;13.88;23.03
64064;BME280;50314;50.618;10.642;2023-02-28T07:10:12;97719.25;;;13.90;22.76
64064;BME280;50314;50.618;10.642;2023-02-28T07:12:38;97710.34;;;13.91;22.97
64064;BME280;50314;50.618;10.642;2023-02-28T07:15:05;97716.41;;;13.93;22.74
64064;BME280;50314;50.618;10.642;2023-02-28T07:17:30;97719.69;;;13.97;22.64
64064;BME280;50314;50.618;10.642;2023-02-28T07:19:56;97720.44;;;13.99;23.00
64064;BME280;50314;50.618;10.642;2023-02-28T07:22:22;97724.66;;;14.01;22.88
64064;BME280;50314;50.618;10.642;2023-02-28T07:24:47;97714.78;;;14.03;22.97
64064;BME280;50314;50.618;10.642;2023-02-28T07:27:13;97725.19;;;14.06;23.04
64064;BME280;50314;50.618;10.642;2023-02-28T07:29:51;97718.81;;;14.09;22.98
64064;BME280;50314;50.618;10.642;2023-02-28T07:32:18;97719.44;;;14.13;22.66
64064;BME280;50314;50.618;10.642;2023-02-28T07:34:44;97719.22;;;14.16;22.88
64064;BME280;50314;50.618;10.642;2023-02-28T07:37:09;97712.00;;;14.18;22.87
64064;BME280;50314;50.618;10.642;2023-02-28T07:39:35;97717.06;;;14.21;22.88
64064;BME280;50314;50.618;10.642;2023-02-28T07:42:04;97726.59;;;14.23;22.98
64064;BME280;50314;50.618;10.642;2023-02-28T07:44:29;97720.25;;;14.26;22.62
64064;BME280;50314;50.618;10.642;2023-02-28T07:46:55;97721.09;;;14.26;22.70
64064;BME280;50314;50.618;10.642;2023-02-28T07:49:20;97728.91;;;14.28;22.69
64064;BME280;50314;50.618;10.642;2023-02-28T07:51:46;97720.97;;;14.28;22.81
64064;BME280;50314;50.618;10.642;2023-02-28T07:54:11;97720.03;;;14.29;22.82
64064;BME280;50314;50.618;10.642;2023-02-28T07:56:37;97711.94;;;14.30;22.36
64064;BME280;50314;50.618;10.642;2023-02-28T07:59:02;97717.25;;;14.30;22.44
64064;BME280;50314;50.618;10.642;2023-02-28T08:01:28;97720.66;;;14.32;22.78
64064;BME280;50314;50.618;10.642;2023-02-28T08:03:53;97717.13;;;14.32;22.61
64064;BME280;50314;50.618;10.642;2023-02-28T08:06:22;97714.47;;;14.32;22.67
64064;BME280;50314;50.618;10.642;2023-02-28T08:08:48;97713.53;;;14.33;22.71
64064;BME280;50314;50.618;10.642;2023-02-28T08:11:14;97717.88;;;14.34;22.25
64064;BME280;50314;50.618;10.642;2023-02-28T08:13:41;97722.19;;;14.35;22.27
64064;BME280;50314;50.618;10.642;2023-02-28T08:16:07;97717.78;;;14.36;22.38
64064;BME280;50314;50.618;10.642;2023-02-28T08:18:33;97714.16;;;14.37;22.62
64064;BME280;50314;50.618;10.642;2023-02-28T08:20:58;97723.69;;;14.39;22.62
64064;BME280;50314;50.618;10.642;2023-02-28T08:23:24;97725.25;;;14.42;22.54
64064;BME280;50314;50.618;10.642;2023-02-28T08:25:53;97722.72;;;14.40;22.61
64064;BME280;50314;50.618;10.642;2023-02-28T08:28:19;97722.59;;;14.42;22.60
64064;BME280;50314;50.618;10.642;2023-02-28T08:30:45;97721.53;;;14.44;22.63
64064;BME280;50314;50.618;10.642;2023-02-28T08:33:10;97728.66;;;14.44;22.24
64064;BME280;50314;50.618;10.642;2023-02-28T08:35:36;97722.38;;;14.45;22.66
64064;BME280;50314;50.618;10.642;2023-02-28T08:38:02;97723.22;;;14.45;22.38
64064;BME280;50314;50.618;10.642;2023-02-28T08:40:28;97727.59;;;14.46;22.51
64064;BME280;50314;50.618;10.642;2023-02-28T08:42:53;97721.31;;;14.47;22.60
64064;BME280;50314;50.618;10.642;2023-02-28T08:45:19;97720.34;;;14.48;22.53
64064;BME280;50314;50.618;10.642;2023-02-28T08:47:44;97724.72;;;14.49;22.82
64064;BME280;50314;50.618;10.642;2023-02-28T08:50:10;97725.41;;;14.51;22.77
64064;BME280;50314;50.618;10.642;2023-02-28T08:52:35;97727.13;;;14.52;22.61
64064;BME280;50314;50.618;10.642;2023-02-28T08:55:01;97734.84;;;14.55;22.34
64064;BME280;50314;50.618;10.642;2023-02-28T08:57:26;97733.91;;;14.56;22.67
64064;BME280;50314;50.618;10.642;2023-02-28T08:59:52;97738.13;;;14.59;22.33
64064;BME280;50314;50.618;10.642;2023-02-28T09:02:18;97731.72;;;14.62;22.25
64064;BME280;50314;50.618;10.642;2023-02-28T09:04:43;97727.88;;;14.66;22.57
64064;BME280;50314;50.618;10.642;2023-02-28T09:07:12;97733.09;;;14.67;22.60
64064;BME280;50314;50.618;10.642;2023-02-28T09:09:37;97733.88;;;14.69;22.54
64064;BME280;50314;50.618;10.642;2023-02-28T09:12:03;97727.47;;;14.72;22.09
64064;BME280;50314;50.618;10.642;2023-02-28T09:14:30;97723.00;;;14.72;22.11
64064;BME280;50314;50.618;10.642;2023-02-28T09:16:56;97723.88;;;14.73;22.28
64064;BME280;50314;50.618;10.642;2023-02-28T09:19:21;97716.63;;;14.75;22.17
64064;BME280;50314;50.618;10.642;2023-02-28T09:21:47;97714.72;;;14.77;22.05
64064;BME280;50314;50.618;10.642;2023-02-28T09:24:12;97723.41;;;14.79;22.12
64064;BME280;50314;50.618;10.642;2023-02-28T09:26:40;97730.19;;;14.83;22.34
64064;BME280;50314;50.618;10.642;2023-02-28T09:29:05;97713.31;;;14.84;22.12
64064;BME280;50314;50.618;10.642;2023-02-28T09:31:32;97720.19;;;14.87;21.52
64064;BME280;50314;50.618;10.642;2023-02-28T09:33:58;97717.41;;;14.88;21.65
64064;BME280;50314;50.618;10.642;2023-02-28T09:36:27;97713.78;;;14.89;21.53
64064;BME280;50314;50.618;10.642;2023-02-28T09:38:53;97719.84;;;14.91;21.41
64064;BME280;50314;50.618;10.642;2023-02-28T09:41:24;97719.75;;;14.93;21.32
64064;BME280;50314;50.618;10.642;2023-02-28T09:43:59;97722.38;;;14.93;21.73
64064;BME280;50314;50.618;10.642;2023-02-28T09:46:29;97722.03;;;14.97;21.48
64064;BME280;50314;50.618;10.642;2023-02-28T09:48:56;97715.75;;;14.98;21.36
64064;BME280;50314;50.618;10.642;2023-02-28T09:54:05;97724.31;;;15.02;21.76
64064;BME280;50314;50.618;10.642;2023-02-28T09:56:36;97723.38;;;15.03;21.38
64064;BME280;50314;50.618;10.642;2023-02-28T09:59:10;97728.56;;;15.04;21.51
64064;BME280;50314;50.618;10.642;2023-02-28T10:04:39;97736.50;;;15.04;21.71
64064;BME280;50314;50.618;10.642;2023-02-28T10:07:35;97729.41;;;15.05;21.75
64064;BME280;50314;50.618;10.642;2023-02-28T10:10:06;97736.06;;;15.11;21.55
64064;BME280;50314;50.618;10.642;2023-02-28T10:12:38;97747.38;;;15.13;21.70
64064;BME280;50314;50.618;10.642;2023-02-28T10:15:15;97753.66;;;15.12;21.30
64064;BME280;50314;50.618;10.642;2023-02-28T10:17:45;97741.97;;;15.14;21.73
64064;BME280;50314;50.618;10.642;2023-02-28T10:20:14;97741.75;;;15.17;21.47
64064;BME280;50314;50.618;10.642;2023-02-28T10:25:38;97735.00;;;15.24;21.78
64064;BME280;50314;50.618;10.642;2023-02-28T10:28:14;97737.53;;;15.26;21.37
64064;BME280;50314;50.618;10.642;2023-02-28T10:30:49;97730.06;;;15.31;21.37
64064;BME280;50314;50.618;10.642;2023-02-28T10:33:22;97725.13;;;15.38;21.66
64064;BME280;50314;50.618;10.642;2023-02-28T10:35:48;97720.94;;;15.46;21.55
64064;BME280;50314;50.618;10.642;2023-02-28T10:38:58;97715.16;;;15.53;21.36
64064;BME280;50314;50.618;10.642;2023-02-28T10:41:14;97719.00;;;15.60;21.86
64064;BME280;50314;50.618;10.642;2023-02-28T10:43:41;97716.38;;;15.71;21.53
64064;BME280;50314;50.618;10.642;2023-02-28T10:48:37;97718.28;;;15.91;21.74
64064;BME280;50314;50.618;10.642;2023-02-28T10:51:05;97714.78;;;16.02;21.86
64064;BME280;50314;50.618;10.642;2023-02-28T10:53:51;97726.38;;;16.12;21.83
64064;BME280;50314;50.618;10.642;2023-02-28T10:56:25;97733.72;;;16.20;21.85
64064;BME280;50314;50.618;10.642;2023-02-28T10:59:02;97734.81;;;16.29;21.69
64064;BME280;50314;50.618;10.642;2023-02-28T11:01:42;97730.56;;;16.37;21.81
64064;BME280;50314;50.618;10.642;2023-02-28T11:06:48;97730.16;;;16.53;21.75
64064;BME280;50314;50.618;10.642;2023-02-28T11:09:33;97735.22;;;16.56;21.60
64064;BME280;50314;50.618;10.642;2023-02-28T11:12:01;97733.50;;;16.66;21.46
64064;BME280;50314;50.618;10.642;2023-02-28T11:14:28;97725.13;;;16.71;21.52
64064;BME280;50314;50.618;10.642;2023-02-28T11:17:00;97727.53;;;16.74;21.36
64064;BME280;50314;50.618;10.642;2023-02-28T11:19:29;97720.91;;;16.80;21.46
64064;BME280;50314;50.618;10.642;2023-02-28T11:22:02;97718.69;;;16.85;21.29
64064;BME280;50314;50.618;10.642;2023-02-28T11:24:35;97723.75;;;16.88;21.42
64064;BME280;50314;50.618;10.642;2023-02-28T11:27:01;97717.59;;;16.87;21.56
64064;BME280;50314;50.618;10.642;2023-02-28T11:29:29;97708.59;;;17.00;21.71
64064;BME280;50314;50.618;10.642;2023-02-28T11:34:35;97700.25;;;17.14;21.43
64064;BME280;50314;50.618;10.642;2023-02-28T11:37:02;97700.44;;;17.22;21.75
64064;BME280;50314;50.618;10.642;2023-02-28T11:39:31;97697.97;;;17.30;21.88
64064;BME280;50314;50.618;10.642;2023-02-28T11:44:53;97697.78;;;17.43;21.83
64064;BME280;50314;50.618;10.642;2023-02-28T11:52:42;97676.88;;;17.69;21.87
64064;BME280;50314;50.618;10.642;2023-02-28T11:55:35;97679.16;;;17.74;21.69
64064;BME280;50314;50.618;10.642;2023-02-28T12:06:30;97673.06;;;18.02;21.72
64064;BME280;50314;50.618;10.642;2023-02-28T12:09:04;97669.34;;;18.15;21.93
64064;BME280;50314;50.618;10.642;2023-02-28T12:11:55;97668.91;;;18.19;21.65
64064;BME280;50314;50.618;10.642;2023-02-28T12:20:05;97666.13;;;18.40;22.07
64064;BME280;50314;50.618;10.642;2023-02-28T12:28:02;97662.91;;;18.66;22.08
64064;BME280;50314;50.618;10.642;2023-02-28T12:30:31;97657.13;;;18.70;21.91
64064;BME280;50314;50.618;10.642;2023-02-28T12:33:24;97670.06;;;18.75;21.99
64064;BME280;50314;50.618;10.642;2023-02-28T12:35:59;97663.22;;;18.82;22.01
64064;BME280;50314;50.618;10.642;2023-02-28T12:38:31;97655.19;;;18.92;21.97
64064;BME280;50314;50.618;10.642;2023-02-28T12:41:05;97659.09;;;18.97;22.16
64064;BME280;50314;50.618;10.642;2023-02-28T12:43:42;97652.50;;;19.01;22.03
64064;BME280;50314;50.618;10.642;2023-02-28T12:46:32;97648.41;;;19.07;21.81
64064;BME280;50314;50.618;10.642;2023-02-28T12:49:13;97648.81;;;19.12;21.94
64064;BME280;50314;50.618;10.642;2023-02-28T12:51:40;97637.41;;;19.20;21.64
64064;BME280;50314;50.618;10.642;2023-02-28T12:54:36;97641.63;;;19.22;21.84
64064;BME280;50314;50.618;10.642;2023-02-28T12:59:45;97639.75;;;19.33;21.75
64064;BME280;50314;50.618;10.642;2023-02-28T13:04:52;97636.25;;;19.42;21.88
64064;BME280;50314;50.618;10.642;2023-02-28T13:09:54;97628.16;;;19.52;21.50
64064;BME280;50314;50.618;10.642;2023-02-28T13:12:21;97623.25;;;19.57;21.76
64064;BME280;50314;50.618;10.642;2023-02-28T13:14:48;97620.13;;;19.61;21.40
64064;BME280;50314;50.618;10.642;2023-02-28T13:17:22;97619.97;;;19.63;21.42
64064;BME280;50314;50.618;10.642;2023-02-28T13:22:36;97619.94;;;19.73;20.46
64064;BME280;50314;50.618;10.642;2023-02-28T13:28:00;97622.44;;;19.74;20.13
64064;BME280;50314;50.618;10.642;2023-02-28T13:38:45;97620.59;;;19.75;20.26
64064;BME280;50314;50.618;10.642;2023-02-28T13:41:41;97630.75;;;19.71;19.70
64064;BME280;50314;50.618;10.642;2023-02-28T13:44:15;97634.69;;;19.77;19.61
64064;BME280;50314;50.618;10.642;2023-02-28T13:54:57;97628.91;;;19.71;19.66
64064;BME280;50314;50.618;10.642;2023-02-28T14:00:23;97638.78;;;19.71;19.62
64064;BME280;50314;50.618;10.642;2023-02-28T14:03:18;97628.25;;;19.69;19.42
64064;BME280;50314;50.618;10.642;2023-02-28T14:06:24;97628.53;;;19.66;19.58
64064;BME280;50314;50.618;10.642;2023-02-28T14:08:58;97626.72;;;19.67;19.56
64064;BME280;50314;50.618;10.642;2023-02-28T14:11:35;97618.84;;;19.65;19.76
64064;BME280;50314;50.618;10.642;2023-02-28T14:14:03;97624.56;;;19.70;19.91
64064;BME280;50314;50.618;10.642;2023-02-28T14:16:39;97624.03;;;19.67;19.96
64064;BME280;50314;50.618;10.642;2023-02-28T14:19:26;97621.53;;;19.65;20.17
64064;BME280;50314;50.618;10.642;2023-02-28T14:25:04;97625.88;;;19.66;19.66
64064;BME280;50314;50.618;10.642;2023-02-28T14:32:58;97611.72;;;19.56;17.87
64064;BME280;50314;50.618;10.642;2023-02-28T14:35:35;97617.06;;;19.56;18.03
64064;BME280;50314;50.618;10.642;2023-02-28T14:38:06;97608.34;;;19.54;17.87
64064;BME280;50314;50.618;10.642;2023-02-28T14:40:34;97621.84;;;19.53;17.61
64064;BME280;50314;50.618;10.642;2023-02-28T14:43:05;97607.13;;;19.48;17.82
64064;BME280;50314;50.618;10.642;2023-02-28T14:45:33;97604.44;;;19.48;17.84
64064;BME280;50314;50.618;10.642;2023-02-28T14:48:01;97611.75;;;19.46;18.10
64064;BME280;50314;50.618;10.642;2023-02-28T14:50:34;97611.22;;;19.43;18.06
64064;BME280;50314;50.618;10.642;2023-02-28T14:53:00;97597.84;;;19.43;18.31
64064;BME280;50314;50.618;10.642;2023-02-28T14:55:30;97600.81;;;19.40;18.18
64064;BME280;50314;50.618;10.642;2023-02-28T14:57:58;97598.25;;;19.38;18.52